Time;durP1;ratioP1;P1;durP2;ratioP2;P2;SDS_P1;SDS_P2;PMS_P1;PMS_P2;Temp;Humidity;BMP_temperature;BMP_pressure;BME280_temperature;BME280_humidity;BME280_pressure;Samples;Min_cycle;Max_cycle;Signal;HPM_P1;HPM_P2
2023/03/12 00:01:47;;;;;;;6.63;5.70;;;4.40;98.60;;;;;;5053681;28;20555;-80
2023/03/12 00:04:13;;;;;;;6.20;5.30;;;4.40;98.70;;;;;;5053598;28;20178;-81
2023/03/12 00:06:39;;;;;;;7.63;5.77;;;4.30;98.80;;;;;;5052427;28;20264;-81
2023/03/12 00:09:04;;;;;;;8.03;5.70;;;4.30;98.80;;;;;;5054635;28;20643;-81
2023/03/12 00:11:30;;;;;;;6.00;4.77;;;4.30;99.00;;;;;;5053493;28;20185;-81
2023/03/12 00:13:57;;;;;;;7.27;5.40;;;4.30;99.00;;;;;;5059875;28;20590;-81
2023/03/12 00:16:24;;;;;;;7.47;5.88;;;4.20;99.10;;;;;;5074599;28;20430;-81
2023/03/12 00:18:51;;;;;;;6.28;5.53;;;4.20;99.30;;;;;;5074466;28;20697;-81
2023/03/12 00:21:17;;;;;;;6.90;5.38;;;4.10;99.40;;;;;;5073070;28;20185;-80
2023/03/12 00:23:45;;;;;;;8.40;5.72;;;4.10;99.60;;;;;;5073189;28;20567;-80
2023/03/12 00:26:12;;;;;;;7.95;6.00;;;4.10;99.90;;;;;;5074424;28;20511;-81
2023/03/12 00:28:39;;;;;;;7.68;6.32;;;4.00;99.70;;;;;;5072891;28;20238;-79
2023/03/12 00:31:16;;;;;;;8.32;5.72;;;4.00;99.80;;;;;;5074275;28;20189;-79
2023/03/12 00:33:43;;;;;;;8.25;5.55;;;3.90;99.80;;;;;;5074238;28;20654;-81
2023/03/12 00:36:10;;;;;;;6.68;5.63;;;3.90;99.90;;;;;;5072938;28;20185;-80
2023/03/12 00:38:35;;;;;;;6.70;5.88;;;3.90;99.90;;;;;;5074060;28;20189;-80
2023/03/12 00:41:01;;;;;;;7.00;5.57;;;3.80;99.90;;;;;;5072848;28;20525;-81
2023/03/12 00:43:27;;;;;;;8.13;6.60;;;3.80;99.90;;;;;;5074018;28;20577;-80
2023/03/12 00:45:52;;;;;;;7.43;5.40;;;3.80;99.90;;;;;;5074043;28;20177;-80
2023/03/12 00:48:18;;;;;;;7.73;5.77;;;3.80;99.90;;;;;;5072606;28;20462;-81
2023/03/12 00:50:44;;;;;;;7.10;5.70;;;3.70;99.90;;;;;;5073823;28;20704;-80
2023/03/12 00:53:09;;;;;;;6.90;5.57;;;3.70;99.90;;;;;;5073884;28;20193;-81
2023/03/12 00:55:35;;;;;;;6.60;5.87;;;3.70;99.90;;;;;;5073877;28;20184;-80
2023/03/12 00:58:01;;;;;;;8.07;6.13;;;3.70;99.90;;;;;;5072472;28;20209;-80
2023/03/12 01:00:27;;;;;;;7.77;6.03;;;3.70;99.90;;;;;;5072661;28;20173;-81
2023/03/12 01:02:52;;;;;;;8.37;6.20;;;3.70;99.90;;;;;;5072756;28;20208;-80
2023/03/12 01:05:18;;;;;;;7.23;6.50;;;3.70;99.90;;;;;;5072586;28;20509;-80
2023/03/12 01:07:44;;;;;;;10.13;7.17;;;3.60;99.90;;;;;;5072465;28;20212;-80
2023/03/12 01:10:12;;;;;;;8.00;6.40;;;3.60;99.90;;;;;;5073723;28;20380;-80
2023/03/12 01:12:38;;;;;;;8.70;6.97;;;3.60;99.90;;;;;;5072223;28;20216;-81
2023/03/12 01:15:04;;;;;;;8.50;6.63;;;3.60;99.90;;;;;;5073718;28;20232;-80
2023/03/12 01:17:30;;;;;;;9.68;6.40;;;3.60;99.90;;;;;;5072382;28;20205;-80
2023/03/12 01:19:55;;;;;;;7.83;6.90;;;3.60;99.90;;;;;;5073387;28;20539;-80
2023/03/12 01:22:21;;;;;;;11.40;7.30;;;3.60;99.90;;;;;;5072156;28;20197;-80
2023/03/12 01:24:47;;;;;;;12.20;7.27;;;3.60;99.90;;;;;;5072305;28;20177;-81
2023/03/12 01:27:12;;;;;;;9.60;7.50;;;3.60;99.90;;;;;;5072432;28;20284;-80
2023/03/12 01:29:38;;;;;;;8.43;7.23;;;3.50;99.90;;;;;;5072180;28;20440;-81
2023/03/12 01:32:04;;;;;;;9.43;7.23;;;3.50;99.90;;;;;;5072286;28;20201;-81
2023/03/12 01:34:32;;;;;;;9.38;7.00;;;3.50;99.90;;;;;;5073615;28;20215;-82
2023/03/12 01:36:58;;;;;;;14.15;7.75;;;3.50;99.90;;;;;;5072208;28;20248;-81
2023/03/12 01:39:24;;;;;;;8.80;6.40;;;3.40;99.90;;;;;;5073492;28;20196;-81
2023/03/12 01:41:50;;;;;;;9.57;6.95;;;3.40;99.90;;;;;;5072185;28;20199;-81
2023/03/12 01:44:16;;;;;;;7.95;6.88;;;3.40;99.90;;;;;;5073532;28;20538;-81
2023/03/12 01:46:43;;;;;;;7.83;6.87;;;3.40;99.90;;;;;;5073471;28;20188;-81
2023/03/12 01:49:20;;;;;;;9.43;7.55;;;3.40;99.90;;;;;;5073261;28;20213;-81
2023/03/12 01:51:55;;;;;;;9.35;6.60;;;3.40;99.90;;;;;;5073451;28;20174;-81
2023/03/12 01:54:25;;;;;;;7.85;6.82;;;3.40;99.90;;;;;;5072049;28;20176;-80
2023/03/12 01:56:53;;;;;;;8.50;7.10;;;3.30;99.90;;;;;;5072026;28;20234;-81
2023/03/12 01:59:25;;;;;;;11.38;6.57;;;3.30;99.90;;;;;;5073246;28;20537;-81
2023/03/12 02:01:52;;;;;;;8.52;6.70;;;3.30;99.90;;;;;;5073477;28;20205;-81
2023/03/12 02:04:20;;;;;;;10.18;7.47;;;3.30;99.90;;;;;;5071904;28;20181;-80
2023/03/12 02:06:52;;;;;;;8.25;6.82;;;3.30;99.90;;;;;;5073245;28;20188;-80
2023/03/12 02:09:20;;;;;;;8.80;6.65;;;3.20;99.90;;;;;;5073201;28;20694;-82
2023/03/12 02:11:46;;;;;;;9.02;6.85;;;3.20;99.90;;;;;;5073226;28;20177;-82
2023/03/12 02:14:12;;;;;;;8.48;6.85;;;3.20;99.90;;;;;;5071833;28;20248;-81
2023/03/12 02:16:37;;;;;;;8.13;6.60;;;3.20;99.90;;;;;;5071766;28;20217;-80
2023/03/12 02:19:11;;;;;;;9.63;6.97;;;3.20;99.90;;;;;;5071830;28;20653;-82
2023/03/12 02:21:38;;;;;;;8.80;6.78;;;3.20;99.90;;;;;;5072920;28;20181;-81
2023/03/12 02:24:28;;;;;;;9.20;6.40;;;3.20;99.90;;;;;;5073057;28;20223;-81
2023/03/12 02:26:55;;;;;;;8.32;6.75;;;3.10;99.90;;;;;;5073061;28;20689;-80
2023/03/12 02:29:22;;;;;;;9.30;6.75;;;3.20;99.90;;;;;;5072898;28;20205;-80
2023/03/12 02:31:59;;;;;;;8.00;6.70;;;3.20;99.90;;;;;;5074813;28;20246;-81
2023/03/12 02:34:25;;;;;;;13.85;8.35;;;3.20;99.90;;;;;;5076653;28;20244;-81
2023/03/12 02:36:51;;;;;;;9.30;6.47;;;3.10;99.90;;;;;;5075457;28;20216;-81
2023/03/12 02:39:18;;;;;;;10.07;7.25;;;3.20;99.90;;;;;;5075120;28;20177;-81
2023/03/12 02:41:52;;;;;;;8.48;6.78;;;3.10;99.90;;;;;;5075050;28;20708;-81
2023/03/12 02:44:30;;;;;;;9.30;7.55;;;3.20;99.90;;;;;;5076391;28;20161;-82
2023/03/12 02:46:59;;;;;;;15.15;8.20;;;3.10;99.90;;;;;;5075116;28;20208;-80
2023/03/12 02:49:28;;;;;;;8.80;6.78;;;3.10;99.90;;;;;;5076161;28;20201;-81
2023/03/12 02:51:55;;;;;;;9.18;7.68;;;3.00;99.90;;;;;;5074935;28;20205;-81
2023/03/12 02:54:22;;;;;;;8.00;7.15;;;3.10;99.90;;;;;;5074956;28;20178;-81
2023/03/12 02:56:49;;;;;;;9.50;7.80;;;3.10;99.90;;;;;;5076346;28;20181;-81
2023/03/12 02:59:15;;;;;;;9.95;7.28;;;3.10;99.90;;;;;;5076104;28;20181;-81
2023/03/12 03:01:41;;;;;;;10.60;7.65;;;3.10;99.90;;;;;;5074655;28;20185;-80
2023/03/12 03:04:09;;;;;;;9.85;8.00;;;3.10;99.90;;;;;;5074692;28;20189;-81
2023/03/12 03:06:38;;;;;;;11.23;7.50;;;3.10;99.90;;;;;;5074623;28;20275;-80
2023/03/12 03:09:04;;;;;;;9.85;8.23;;;3.10;99.90;;;;;;5074568;28;20308;-80
2023/03/12 03:11:30;;;;;;;8.90;7.28;;;3.10;99.90;;;;;;5074629;28;20560;-81
2023/03/12 03:13:56;;;;;;;9.90;7.37;;;3.20;99.90;;;;;;5074305;28;20237;-81
2023/03/12 03:16:22;;;;;;;6.90;6.03;;;3.10;99.90;;;;;;5075871;28;20400;-81
2023/03/12 03:18:48;;;;;;;10.15;7.40;;;3.10;99.90;;;;;;5074454;28;20258;-81
2023/03/12 03:21:15;;;;;;;11.40;7.77;;;3.20;99.90;;;;;;5074501;28;20647;-80
2023/03/12 03:23:49;;;;;;;9.07;6.75;;;3.10;99.90;;;;;;5075539;28;20439;-81
2023/03/12 03:26:18;;;;;;;9.93;7.78;;;3.10;99.90;;;;;;5074353;28;20188;-81
2023/03/12 03:28:43;;;;;;;8.80;6.97;;;3.10;99.90;;;;;;5075378;28;20686;-81
2023/03/12 03:31:09;;;;;;;8.80;7.43;;;3.00;99.90;;;;;;5074142;28;20181;-81
2023/03/12 03:33:37;;;;;;;11.87;7.77;;;3.00;99.90;;;;;;5075357;28;20185;-82
2023/03/12 03:36:04;;;;;;;7.95;7.05;;;3.00;99.90;;;;;;5074042;28;20815;-81
2023/03/12 03:38:32;;;;;;;8.27;7.18;;;3.00;99.90;;;;;;5074022;28;20225;-81
2023/03/12 03:40:58;;;;;;;12.65;8.38;;;3.00;99.90;;;;;;5075073;28;20170;-82
2023/03/12 03:43:24;;;;;;;8.23;6.95;;;3.00;99.90;;;;;;5075275;28;20194;-81
2023/03/12 03:46:16;;;;;;;10.43;7.77;;;2.90;99.90;;;;;;5073883;28;20195;-81
2023/03/12 03:48:42;;;;;;;9.95;8.10;;;2.90;99.90;;;;;;5071639;28;20470;-81
2023/03/12 03:51:09;;;;;;;11.00;7.10;;;2.90;99.90;;;;;;5074990;28;20265;-81
2023/03/12 03:53:35;;;;;;;9.60;7.50;;;2.90;99.90;;;;;;5073607;28;20197;-80
2023/03/12 03:56:06;;;;;;;10.43;7.63;;;2.80;99.90;;;;;;5074903;28;20181;-82
2023/03/12 03:58:32;;;;;;;11.93;7.57;;;2.80;99.90;;;;;;5073509;28;20291;-80
2023/03/12 04:00:58;;;;;;;9.20;7.10;;;2.80;99.90;;;;;;5073552;28;20274;-81
2023/03/12 04:03:23;;;;;;;9.37;7.50;;;2.70;99.90;;;;;;5074777;28;20193;-81
2023/03/12 04:05:59;;;;;;;12.57;8.90;;;2.80;99.90;;;;;;5074689;28;20181;-81
2023/03/12 04:08:25;;;;;;;9.60;7.25;;;2.70;99.90;;;;;;5074705;28;20228;-80
2023/03/12 04:10:50;;;;;;;10.50;7.67;;;2.70;99.90;;;;;;5073360;28;20658;-81
2023/03/12 04:13:16;;;;;;;9.90;7.90;;;2.70;99.90;;;;;;5074383;28;20397;-80
2023/03/12 04:15:50;;;;;;;9.47;7.00;;;2.70;99.90;;;;;;5074625;28;20365;-81
2023/03/12 04:18:16;;;;;;;8.57;6.88;;;2.70;99.90;;;;;;5073202;28;20201;-81
2023/03/12 04:20:42;;;;;;;11.20;7.10;;;2.70;99.90;;;;;;5074466;28;20172;-80
2023/03/12 04:23:08;;;;;;;9.52;7.22;;;2.70;99.90;;;;;;5074783;28;20486;-81
2023/03/12 04:25:34;;;;;;;12.68;9.05;;;2.70;99.90;;;;;;5074428;28;20173;-81
2023/03/12 04:28:00;;;;;;;10.50;7.13;;;2.70;99.90;;;;;;5074044;28;20288;-82
2023/03/12 04:30:26;;;;;;;13.23;8.38;;;2.70;99.90;;;;;;5073092;28;20456;-82
2023/03/12 04:32:53;;;;;;;10.03;7.97;;;2.60;99.90;;;;;;5073439;28;20681;-82
2023/03/12 04:35:19;;;;;;;11.75;8.45;;;2.70;99.90;;;;;;5073199;28;20945;-81
2023/03/12 04:37:45;;;;;;;9.73;8.10;;;2.60;99.90;;;;;;5074496;28;20228;-81
2023/03/12 04:40:11;;;;;;;9.97;8.40;;;2.60;99.90;;;;;;5072922;28;20392;-81
2023/03/12 04:42:37;;;;;;;10.48;7.80;;;2.60;99.90;;;;;;5072832;28;20416;-81
2023/03/12 04:45:05;;;;;;;12.03;8.83;;;2.50;99.90;;;;;;5074122;28;20208;-81
2023/03/12 04:47:31;;;;;;;12.65;7.78;;;2.50;99.90;;;;;;5072830;28;20205;-82
2023/03/12 04:49:57;;;;;;;11.40;8.60;;;2.50;99.90;;;;;;5072654;28;20397;-81
2023/03/12 04:52:24;;;;;;;12.55;9.40;;;2.50;99.90;;;;;;5074003;28;20201;-82
2023/03/12 04:54:49;;;;;;;11.05;8.05;;;2.50;99.90;;;;;;5073653;28;20173;-80
2023/03/12 04:57:15;;;;;;;13.20;8.73;;;2.40;99.90;;;;;;5072502;28;20212;-82
2023/03/12 04:59:41;;;;;;;10.90;8.70;;;2.50;99.90;;;;;;5073829;28;20885;-80
2023/03/12 05:02:07;;;;;;;12.40;8.23;;;2.40;99.90;;;;;;5072948;28;20465;-81
2023/03/12 05:04:33;;;;;;;11.50;8.63;;;2.40;99.90;;;;;;5072534;28;20201;-81
2023/03/12 05:06:59;;;;;;;12.67;8.63;;;2.40;99.90;;;;;;5072564;28;20201;-81
2023/03/12 05:09:24;;;;;;;10.97;8.60;;;2.40;99.90;;;;;;5073725;28;20214;-80
2023/03/12 05:11:50;;;;;;;11.37;9.20;;;2.50;99.90;;;;;;5073913;28;20181;-81
2023/03/12 05:14:16;;;;;;;11.00;7.40;;;2.50;99.90;;;;;;5073458;28;20259;-81
2023/03/12 05:16:41;;;;;;;11.63;8.67;;;2.50;99.90;;;;;;5073669;28;20181;-81
2023/03/12 05:19:07;;;;;;;12.50;8.27;;;2.40;99.90;;;;;;5072445;28;20176;-81
2023/03/12 05:21:33;;;;;;;11.73;8.50;;;2.50;99.90;;;;;;5073782;28;20205;-82
2023/03/12 05:23:59;;;;;;;16.15;10.93;;;2.40;99.90;;;;;;5072338;28;20414;-81
2023/03/12 05:26:30;;;;;;;11.90;8.70;;;2.40;99.90;;;;;;5072371;28;20189;-82
2023/03/12 05:28:56;;;;;;;12.57;9.18;;;2.40;99.90;;;;;;5072181;28;20469;-81
2023/03/12 05:31:22;;;;;;;13.98;9.68;;;2.40;99.90;;;;;;5073667;28;20662;-81
2023/03/12 05:33:48;;;;;;;12.23;9.20;;;2.40;99.90;;;;;;5073398;28;20277;-82
2023/03/12 05:36:14;;;;;;;12.10;8.80;;;2.40;99.90;;;;;;5072293;28;20459;-82
2023/03/12 05:38:41;;;;;;;11.88;8.57;;;2.40;99.90;;;;;;5072121;28;20525;-81
2023/03/12 05:41:08;;;;;;;12.75;9.25;;;2.50;99.90;;;;;;5073514;28;20184;-81
2023/03/12 05:43:34;;;;;;;11.93;9.07;;;2.50;99.90;;;;;;5073352;28;20272;-79
2023/03/12 05:46:02;;;;;;;13.17;9.63;;;2.50;99.90;;;;;;5073455;28;20673;-80
2023/03/12 05:48:28;;;;;;;24.30;17.17;;;2.60;99.90;;;;;;5073354;28;20209;-81
2023/03/12 05:50:55;;;;;;;14.18;10.20;;;2.60;99.90;;;;;;5073307;28;20200;-80
2023/03/12 05:53:21;;;;;;;13.95;10.50;;;2.70;99.90;;;;;;5073443;28;20243;-81
2023/03/12 05:55:46;;;;;;;25.03;19.30;;;2.70;99.90;;;;;;5073218;28;20173;-81
2023/03/12 05:58:12;;;;;;;18.17;14.70;;;2.70;99.90;;;;;;5071918;28;20429;-81
2023/03/12 06:00:40;;;;;;;13.93;10.60;;;2.70;99.90;;;;;;5073219;28;20185;-81
2023/03/12 06:03:06;;;;;;;13.40;9.57;;;2.70;99.90;;;;;;5073612;28;20201;-81
2023/03/12 06:05:34;;;;;;;15.55;10.25;;;2.80;99.90;;;;;;5074816;28;20181;-81
2023/03/12 06:08:00;;;;;;;20.42;13.15;;;2.80;99.90;;;;;;5077290;28;20201;-81
2023/03/12 06:10:26;;;;;;;20.63;16.15;;;2.90;99.90;;;;;;5075729;28;20190;-80
2023/03/12 06:12:52;;;;;;;27.00;19.27;;;2.90;99.90;;;;;;5075835;28;20201;-81
2023/03/12 06:15:18;;;;;;;26.63;17.60;;;2.90;99.90;;;;;;5077060;28;20229;-81
2023/03/12 06:17:43;;;;;;;24.03;16.10;;;3.00;99.90;;;;;;5075383;28;20568;-81
2023/03/12 06:20:10;;;;;;;39.00;23.53;;;3.10;99.90;;;;;;5075552;28;20491;-81
2023/03/12 06:22:35;;;;;;;21.65;15.05;;;3.10;99.90;;;;;;5077022;28;20193;-80
2023/03/12 06:25:02;;;;;;;18.10;11.03;;;3.20;99.90;;;;;;5075521;28;20650;-81
2023/03/12 06:27:28;;;;;;;40.83;20.95;;;3.20;99.90;;;;;;5075513;28;20453;-81
2023/03/12 06:29:53;;;;;;;20.43;12.40;;;3.30;99.90;;;;;;5075418;28;20205;-82
2023/03/12 06:32:19;;;;;;;20.23;14.87;;;3.40;99.90;;;;;;5076467;28;20208;-81
2023/03/12 06:34:45;;;;;;;18.60;13.27;;;3.40;99.90;;;;;;5075261;28;20177;-81
2023/03/12 06:37:10;;;;;;;50.87;29.83;;;3.50;99.90;;;;;;5075218;28;20670;-81
2023/03/12 06:39:37;;;;;;;25.90;16.60;;;3.60;99.90;;;;;;5075228;28;20549;-81
2023/03/12 06:42:03;;;;;;;28.10;17.85;;;3.60;99.90;;;;;;5075098;28;20209;-80
2023/03/12 06:44:30;;;;;;;18.58;13.00;;;3.60;99.90;;;;;;5076405;28;20165;-81
2023/03/12 06:46:55;;;;;;;15.75;10.52;;;3.70;99.90;;;;;;5076184;28;20216;-80
2023/03/12 06:49:21;;;;;;;24.83;17.07;;;3.70;99.90;;;;;;5076231;28;20673;-81
2023/03/12 06:51:47;;;;;;;14.27;10.77;;;3.80;99.90;;;;;;5076457;28;20185;-81
2023/03/12 06:54:13;;;;;;;14.87;9.83;;;3.90;99.90;;;;;;5074959;28;20402;-80
2023/03/12 06:56:39;;;;;;;15.45;11.23;;;4.00;99.90;;;;;;5074951;28;20230;-81
2023/03/12 06:59:04;;;;;;;21.87;15.90;;;4.10;99.90;;;;;;5076096;28;20650;-81
2023/03/12 07:01:30;;;;;;;18.87;12.00;;;4.20;99.90;;;;;;5074546;28;20212;-81
2023/03/12 07:03:56;;;;;;;15.43;10.83;;;4.30;99.90;;;;;;5075978;28;20460;-81
2023/03/12 07:06:22;;;;;;;11.83;9.17;;;4.40;99.90;;;;;;5074710;28;20185;-81
2023/03/12 07:08:49;;;;;;;12.70;8.88;;;4.50;99.90;;;;;;5074463;28;20307;-81
2023/03/12 07:11:15;;;;;;;15.30;10.18;;;4.60;99.90;;;;;;5075962;28;20196;-81
2023/03/12 07:13:41;;;;;;;13.27;9.77;;;4.60;99.90;;;;;;5074561;28;20267;-81
2023/03/12 07:16:07;;;;;;;13.48;10.07;;;4.70;99.90;;;;;;5075325;28;20579;-81
2023/03/12 07:18:33;;;;;;;11.77;8.80;;;4.80;99.90;;;;;;5075631;28;20677;-81
2023/03/12 07:20:59;;;;;;;11.07;8.20;;;4.90;99.90;;;;;;5075565;28;20174;-81
2023/03/12 07:23:25;;;;;;;11.37;8.03;;;5.00;99.90;;;;;;5075846;28;20199;-80
2023/03/12 07:25:51;;;;;;;9.23;7.68;;;5.10;99.90;;;;;;5075553;28;20173;-81
2023/03/12 07:28:17;;;;;;;10.85;8.55;;;5.20;99.90;;;;;;5075512;28;20201;-81
2023/03/12 07:30:49;;;;;;;10.25;7.60;;;5.30;99.90;;;;;;5074314;28;20214;-81
2023/03/12 07:33:19;;;;;;;11.35;8.35;;;5.40;99.90;;;;;;5074143;28;20205;-80
2023/03/12 07:35:46;;;;;;;11.15;7.35;;;5.60;99.90;;;;;;5075351;28;20657;-81
2023/03/12 07:38:12;;;;;;;7.72;6.43;;;5.80;99.90;;;;;;5075286;28;20193;-81
2023/03/12 07:40:38;;;;;;;10.75;8.13;;;6.00;99.90;;;;;;5073983;28;20185;-81
2023/03/12 07:43:09;;;;;;;8.17;6.83;;;6.10;99.90;;;;;;5075814;28;20205;-81
2023/03/12 07:45:36;;;;;;;9.48;7.22;;;6.20;99.90;;;;;;5075341;28;20533;-81
2023/03/12 07:48:02;;;;;;;12.70;8.38;;;6.30;99.90;;;;;;5073929;28;20208;-81
2023/03/12 07:50:28;;;;;;;10.20;9.03;;;6.50;99.90;;;;;;5075246;28;20189;-81
2023/03/12 07:52:53;;;;;;;13.60;11.20;;;6.60;99.90;;;;;;5075560;28;20524;-81
2023/03/12 07:55:19;;;;;;;8.10;7.30;;;6.80;99.90;;;;;;5073869;28;20181;-80
2023/03/12 07:57:45;;;;;;;14.30;10.97;;;7.00;99.90;;;;;;5074877;28;20280;-81
2023/03/12 08:00:11;;;;;;;12.50;9.93;;;7.10;99.90;;;;;;5073673;28;20530;-80
2023/03/12 08:02:37;;;;;;;13.88;9.70;;;7.20;99.90;;;;;;5075238;28;20234;-80
2023/03/12 08:05:04;;;;;;;12.98;9.70;;;7.40;99.90;;;;;;5074838;28;20719;-80
2023/03/12 08:07:31;;;;;;;11.80;8.50;;;7.40;99.90;;;;;;5073625;28;20197;-81
2023/03/12 08:09:58;;;;;;;13.95;11.55;;;7.60;99.90;;;;;;5073422;28;20209;-81
2023/03/12 08:12:24;;;;;;;8.90;7.85;;;7.70;99.90;;;;;;5074592;28;20196;-82
2023/03/12 08:14:50;;;;;;;8.00;6.70;;;7.80;99.90;;;;;;5074651;28;20701;-82
2023/03/12 08:17:16;;;;;;;7.40;6.50;;;8.20;99.90;;;;;;5074885;28;20284;-81
2023/03/12 08:19:41;;;;;;;8.18;7.28;;;8.70;99.90;;;;;;5073248;28;20223;-80
2023/03/12 08:22:07;;;;;;;9.53;7.60;;;9.50;99.90;;;;;;5074837;28;20205;-82
2023/03/12 08:24:34;;;;;;;10.30;9.20;;;10.30;99.90;;;;;;5074538;28;20264;-81
2023/03/12 08:27:00;;;;;;;7.22;6.40;;;11.30;99.90;;;;;;5074054;28;20434;-81
2023/03/12 08:29:26;;;;;;;8.40;7.57;;;12.40;97.80;;;;;;5072415;28;20213;-81
2023/03/12 08:31:51;;;;;;;8.87;7.97;;;13.30;96.60;;;;;;5073019;28;20434;-81
2023/03/12 08:34:17;;;;;;;7.67;6.53;;;14.30;95.20;;;;;;5074322;28;20184;-81
2023/03/12 08:36:43;;;;;;;8.07;7.27;;;15.00;93.10;;;;;;5074313;28;20187;-81
2023/03/12 08:39:08;;;;;;;8.20;7.20;;;15.70;90.70;;;;;;5072912;28;20176;-81
2023/03/12 08:41:34;;;;;;;8.67;7.77;;;16.40;89.20;;;;;;5072862;28;20181;-81
2023/03/12 08:44:00;;;;;;;7.87;7.07;;;17.10;87.50;;;;;;5074316;28;20173;-81
2023/03/12 08:46:25;;;;;;;7.40;6.70;;;17.90;84.00;;;;;;5074244;28;20715;-81
2023/03/12 08:48:51;;;;;;;6.43;5.80;;;18.70;80.10;;;;;;5073547;28;20562;-81
2023/03/12 08:51:17;;;;;;;6.67;6.07;;;19.30;79.00;;;;;;5072665;28;20254;-81
2023/03/12 08:53:43;;;;;;;7.13;6.43;;;19.70;76.10;;;;;;5073893;28;20189;-81
2023/03/12 08:56:10;;;;;;;8.33;7.53;;;20.00;75.60;;;;;;5072773;28;20438;-81
2023/03/12 08:58:36;;;;;;;5.93;5.43;;;20.60;72.30;;;;;;5072564;28;20426;-82
2023/03/12 09:01:07;;;;;;;6.90;6.20;;;21.10;70.40;;;;;;5073937;28;20914;-81
2023/03/12 09:03:32;;;;;;;6.80;6.20;;;21.50;68.20;;;;;;5072558;28;20691;-81
2023/03/12 09:06:12;;;;;;;7.40;5.13;;;21.30;67.40;;;;;;5073782;28;20416;-82
2023/03/12 09:08:39;;;;;;;7.60;5.97;;;21.00;66.80;;;;;;5073653;28;20225;-81
2023/03/12 09:11:05;;;;;;;6.93;6.23;;;20.60;67.30;;;;;;5072407;28;20414;-81
2023/03/12 09:13:31;;;;;;;7.00;6.30;;;20.40;67.40;;;;;;5073403;28;20467;-81
2023/03/12 09:16:01;;;;;;;6.80;6.20;;;20.20;67.40;;;;;;5072475;28;20423;-81
2023/03/12 09:18:28;;;;;;;8.63;7.73;;;20.00;66.80;;;;;;5072393;28;20205;-81
2023/03/12 09:20:54;;;;;;;8.67;6.67;;;19.90;68.70;;;;;;5073617;28;20771;-82
2023/03/12 09:23:20;;;;;;;8.53;7.67;;;19.90;69.80;;;;;;5073624;28;20415;-81
2023/03/12 09:25:47;;;;;;;7.70;6.93;;;20.00;69.30;;;;;;5072260;28;20427;-82
2023/03/12 09:28:13;;;;;;;7.30;6.60;;;20.20;67.80;;;;;;5072142;28;20198;-81
2023/03/12 09:30:39;;;;;;;7.80;7.10;;;20.20;69.10;;;;;;5072269;28;20431;-81
2023/03/12 09:33:04;;;;;;;8.23;7.50;;;20.10;67.40;;;;;;5073393;28;20434;-81
2023/03/12 09:35:30;;;;;;;9.30;8.50;;;19.90;67.70;;;;;;5072175;28;20171;-81
2023/03/12 09:37:57;;;;;;;7.67;6.50;;;19.40;66.90;;;;;;5073955;28;20198;-81
2023/03/12 09:40:26;;;;;;;7.27;6.57;;;19.10;68.50;;;;;;5076323;28;20571;-81
2023/03/12 09:42:57;;;;;;;7.33;6.67;;;18.90;69.70;;;;;;5077443;28;20447;-81
2023/03/12 09:45:30;;;;;;;6.23;5.73;;;18.90;70.50;;;;;;5077616;28;20437;-81
2023/03/12 09:47:58;;;;;;;7.23;6.53;;;19.20;68.40;;;;;;5077959;28;20440;-81
2023/03/12 09:50:42;;;;;;;5.90;5.30;;;19.30;68.50;;;;;;5077433;28;20467;-81
2023/03/12 09:53:26;;;;;;;6.90;6.17;;;19.10;67.30;;;;;;5077905;28;20540;-81
2023/03/12 09:55:54;;;;;;;6.47;5.97;;;18.30;66.50;;;;;;5077301;28;20836;-81
2023/03/12 09:58:26;;;;;;;7.20;6.50;;;17.20;68.90;;;;;;5077312;28;20424;-81
2023/03/12 10:00:59;;;;;;;7.13;6.47;;;16.00;70.00;;;;;;5075844;28;20414;-81
2023/03/12 10:03:46;;;;;;;7.40;6.70;;;14.90;71.60;;;;;;5077264;28;20441;-81
2023/03/12 10:06:26;;;;;;;7.57;6.80;;;14.40;74.20;;;;;;5075850;28;20520;-81
2023/03/12 10:09:32;;;;;;;7.43;6.40;;;15.10;74.60;;;;;;5076987;28;20468;-81
2023/03/12 10:12:10;;;;;;;7.30;6.60;;;15.70;73.40;;;;;;5076900;28;20441;-81
2023/03/12 10:14:48;;;;;;;7.63;6.83;;;15.90;73.50;;;;;;5076891;28;20503;-81
2023/03/12 10:17:37;;;;;;;7.40;6.80;;;16.30;72.30;;;;;;5075774;28;20455;-82
2023/03/12 10:20:40;;;;;;;7.70;7.00;;;15.80;70.60;;;;;;5075697;28;20472;-80
2023/03/12 10:23:16;;;;;;;7.97;7.27;;;15.00;72.30;;;;;;5077261;28;20959;-81
2023/03/12 10:25:57;;;;;;;9.67;8.77;;;14.30;73.70;;;;;;5076675;28;20421;-81
2023/03/12 10:28:47;;;;;;;8.77;7.17;;;13.80;74.50;;;;;;5076636;28;20457;-81
2023/03/12 10:31:20;;;;;;;7.67;6.97;;;13.30;77.20;;;;;;5075438;28;20520;-81
2023/03/12 10:33:52;;;;;;;6.83;6.23;;;12.90;76.60;;;;;;5076576;28;20524;-81
2023/03/12 10:36:21;;;;;;;7.23;6.13;;;12.80;78.10;;;;;;5075445;28;20949;-81
2023/03/12 10:38:48;;;;;;;7.43;6.30;;;12.90;76.80;;;;;;5076429;28;20458;-81
2023/03/12 10:41:20;;;;;;;7.43;6.70;;;12.90;76.70;;;;;;5076640;28;20504;-81
2023/03/12 10:43:45;;;;;;;6.77;6.17;;;12.90;77.00;;;;;;5076374;28;20433;-81
2023/03/12 10:46:14;;;;;;;7.20;6.50;;;12.90;78.70;;;;;;5076384;28;20926;-81
2023/03/12 10:48:41;;;;;;;10.43;7.00;;;12.70;78.20;;;;;;5076111;28;20208;-81
2023/03/12 10:51:08;;;;;;;9.33;8.33;;;12.20;78.20;;;;;;5074032;28;20753;-80
2023/03/12 10:53:43;;;;;;;8.10;7.32;;;12.00;78.50;;;;;;5076146;28;20434;-80
2023/03/12 10:56:10;;;;;;;10.45;8.63;;;11.70;79.10;;;;;;5074919;28;20543;-81
2023/03/12 10:58:50;;;;;;;7.32;6.70;;;11.50;80.50;;;;;;5074773;28;20592;-81
2023/03/12 11:01:19;;;;;;;9.13;8.23;;;11.40;81.10;;;;;;5076279;28;20669;-81
2023/03/12 11:03:45;;;;;;;8.00;7.20;;;11.30;81.00;;;;;;5074681;28;20616;-81
2023/03/12 11:06:24;;;;;;;7.15;6.55;;;11.20;82.10;;;;;;5076093;28;20185;-81
2023/03/12 11:09:17;;;;;;;8.73;6.72;;;11.00;81.00;;;;;;5074609;28;20217;-81
2023/03/12 11:11:46;;;;;;;22.15;14.90;;;10.90;80.30;;;;;;5075967;28;20185;-81
2023/03/12 11:14:21;;;;;;;9.70;8.70;;;10.60;80.00;;;;;;5075681;28;20228;-81
2023/03/12 11:16:47;;;;;;;8.43;6.82;;;10.40;81.90;;;;;;5075808;28;20263;-81
2023/03/12 11:19:31;;;;;;;8.95;7.57;;;10.40;80.50;;;;;;5074518;28;20180;-81
2023/03/12 11:22:06;;;;;;;9.20;7.85;;;10.30;82.40;;;;;;5074437;28;20201;-80
2023/03/12 11:24:33;;;;;;;9.07;8.18;;;10.30;82.30;;;;;;5075739;28;20176;-81
2023/03/12 11:27:25;;;;;;;6.78;6.15;;;10.40;82.30;;;;;;5074395;28;20662;-81
2023/03/12 11:29:53;;;;;;;7.38;6.68;;;10.70;83.20;;;;;;5075583;28;20738;-80
2023/03/12 11:32:41;;;;;;;7.70;6.90;;;11.10;82.60;;;;;;5075861;28;20201;-81
2023/03/12 11:35:12;;;;;;;7.53;6.82;;;11.40;80.20;;;;;;5075630;28;20179;-81
2023/03/12 11:38:25;;;;;;;8.30;6.90;;;11.50;79.40;;;;;;5073974;28;20201;-81
2023/03/12 11:41:28;;;;;;;8.27;6.50;;;11.60;80.30;;;;;;5075384;28;20686;-81
2023/03/12 11:44:05;;;;;;;6.40;5.80;;;11.70;79.50;;;;;;5073857;28;20227;-81
2023/03/12 11:46:39;;;;;;;6.50;5.90;;;12.00;79.70;;;;;;5073796;28;20226;-82
2023/03/12 11:49:20;;;;;;;7.43;6.68;;;12.10;77.60;;;;;;5073881;28;20219;-81
2023/03/12 11:51:59;;;;;;;7.68;6.20;;;12.10;77.20;;;;;;5075227;28;20177;-81
2023/03/12 11:54:29;;;;;;;6.10;5.50;;;12.20;78.10;;;;;;5075137;28;20248;-80
2023/03/12 11:57:04;;;;;;;8.07;6.30;;;12.30;77.70;;;;;;5073790;28;20485;-81
2023/03/12 11:59:36;;;;;;;6.93;6.25;;;12.40;77.50;;;;;;5075029;28;20401;-81
2023/03/12 12:02:32;;;;;;;7.65;6.72;;;12.30;77.60;;;;;;5074760;28;20237;-81
2023/03/12 12:05:17;;;;;;;6.00;5.40;;;12.50;77.00;;;;;;5073643;28;20510;-81
2023/03/12 12:07:53;;;;;;;7.07;6.47;;;12.40;78.10;;;;;;5073565;28;20208;-81
2023/03/12 12:10:42;;;;;;;5.70;5.20;;;12.10;75.80;;;;;;5074729;28;20596;-81
2023/03/12 12:13:32;;;;;;;6.17;5.63;;;12.00;76.20;;;;;;5064391;28;20483;-81
2023/03/12 12:16:10;;;;;;;6.80;6.10;;;12.00;75.00;;;;;;5073485;28;20673;-81
2023/03/12 12:18:59;;;;;;;6.70;6.10;;;12.00;75.70;;;;;;5074481;28;20192;-80
2023/03/12 12:21:51;;;;;;;6.70;5.95;;;11.80;75.20;;;;;;5074689;28;20950;-81
2023/03/12 12:24:36;;;;;;;7.27;5.60;;;11.80;78.30;;;;;;5073233;28;20181;-81
2023/03/12 12:27:20;;;;;;;6.45;5.85;;;12.00;76.30;;;;;;5073260;28;20857;-81
2023/03/12 12:29:54;;;;;;;7.13;6.10;;;12.00;75.80;;;;;;5074343;28;20201;-81
2023/03/12 12:32:57;;;;;;;6.73;6.03;;;12.00;76.80;;;;;;5074745;28;20199;-81
2023/03/12 12:35:39;;;;;;;5.87;5.23;;;12.00;76.00;;;;;;5074303;28;20446;-81
2023/03/12 12:38:33;;;;;;;5.60;5.10;;;11.90;76.00;;;;;;5073046;28;20465;-81
2023/03/12 12:41:09;;;;;;;5.40;4.90;;;11.80;75.60;;;;;;5074081;28;20414;-81
2023/03/12 12:43:49;;;;;;;7.13;6.47;;;11.70;76.10;;;;;;5072706;28;20212;-82
2023/03/12 12:46:26;;;;;;;7.13;5.63;;;11.90;77.10;;;;;;5074310;28;20426;-81
2023/03/12 12:49:03;;;;;;;6.07;5.35;;;12.00;74.90;;;;;;5073999;28;20674;-81
2023/03/12 12:51:43;;;;;;;6.13;5.43;;;12.00;76.70;;;;;;5072832;28;20314;-81
2023/03/12 12:54:37;;;;;;;7.55;6.65;;;12.00;78.50;;;;;;5074068;28;20161;-81
2023/03/12 12:57:20;;;;;;;5.83;5.33;;;12.00;77.20;;;;;;5072889;28;20271;-80
2023/03/12 13:00:16;;;;;;;6.55;5.63;;;12.10;76.60;;;;;;5072718;28;20869;-81
2023/03/12 13:02:46;;;;;;;9.10;5.50;;;12.30;75.60;;;;;;5074204;28;20204;-81